This is the latest recevied weather packets stored in our database for station/object GW1599. If no packets are shown the sender has not sent any weather packets the latest 10 day(s).
| Time | Temp. | Humidity | Pressure | Rain* | Wind** | Luminosity | Snow |
|---|---|---|---|---|---|---|---|
| 1778077277 | 16.11° C | 97% | 1009.8 hPa | 11.43 mm | - | - | - |
| 1778076575 | 16.11° C | 97% | 1009.8 hPa | 11.43 mm | - | - | - |
| 1778074430 | 15.56° C | 97% | 1009.1 hPa | 11.18 mm | - | - | - |
| 1778071906 | 15° C | 97% | 1008.8 hPa | 11.18 mm | - | - | - |
| 1778070800 | 15° C | 97% | 1008.4 hPa | 11.18 mm | - | - | - |
| 1778070435 | 15° C | 97% | 1008.4 hPa | 11.18 mm | - | - | - |
| 1778067588 | 14.44° C | 97% | 1008.4 hPa | 10.92 mm | - | - | - |
| 1778065754 | 14.44° C | 97% | 1008.1 hPa | 10.16 mm | - | - | - |
| 1778063631 | 14.44° C | 96% | 1007.1 hPa | 9.91 mm | - | - | - |
| 1778059273 | 14.44° C | 96% | 1007.4 hPa | 7.11 mm | - | - | - |
| 1778057856 | 14.44° C | 95% | 1007.4 hPa | 6.6 mm | - | - | - |
| 1778056766 | 14.44° C | 95% | 1007.7 hPa | 6.1 mm | - | - | - |
| 1778056417 | 14.44° C | 95% | 1007.7 hPa | 5.59 mm | - | - | - |
| 1778052790 | 15° C | 94% | 1008.1 hPa | 1.78 mm | - | - | - |
| 1778052103 | 15° C | 94% | 1008.1 hPa | 1.52 mm | - | - | - |
| 1778050279 | 15° C | 93% | 1008.1 hPa | 0.76 mm | - | - | - |
| 1778048111 | 15° C | 92% | 1008.4 hPa | 0.25 mm | - | - | - |
| 1778045952 | 15° C | 91% | 1008.4 hPa | 0 mm | - | - | - |
| 1778040229 | 16.67° C | 83% | 1009.4 hPa | 0 mm | - | - | - |
| 1778038035 | 16.67° C | 79% | 1009.1 hPa | 0 mm | - | - | - |
| 1778037350 | 17.22° C | 76% | 1009.4 hPa | 0 mm | - | - | - |
| 1778036267 | 17.78° C | 75% | 1009.4 hPa | 0 mm | - | - | - |
| 1778035889 | 17.78° C | 74% | 1009.4 hPa | 0 mm | - | - | - |
| 1778032311 | 18.33° C | 70% | 1009.1 hPa | 0 mm | - | - | - |
| 1778024727 | 21.67° C | 55% | 1010.1 hPa | 0 mm | - | - | - |
* Rain since midnight (hover to see other rain measurements)
** Current wind speed in m/s (hover to see current wind gust speed)